createdAt,value
2023-03-29T00:01:36.150Z,40.92
2023-03-29T00:04:06.461Z,39.94
2023-03-29T00:06:34.022Z,40.62
2023-03-29T00:09:01.831Z,41.54
2023-03-29T00:11:28.470Z,41.70
2023-03-29T00:13:55.150Z,41.17
2023-03-29T00:16:22.298Z,41.87
2023-03-29T00:18:49.093Z,42.49
2023-03-29T00:21:15.892Z,42.58
2023-03-29T00:23:42.589Z,43.28
2023-03-29T00:26:09.291Z,42.96
2023-03-29T00:28:35.988Z,43.19
2023-03-29T00:31:11.698Z,42.83
2023-03-29T00:33:38.732Z,42.08
2023-03-29T00:36:07.386Z,41.57
2023-03-29T00:38:34.533Z,42.46
2023-03-29T00:41:01.525Z,42.75
2023-03-29T00:43:28.275Z,42.53
2023-03-29T00:45:54.835Z,42.44
2023-03-29T00:48:29.915Z,42.22
2023-03-29T00:51:09.411Z,42.08
2023-03-29T00:53:42.623Z,41.16
2023-03-29T00:56:14.243Z,41.85
2023-03-29T00:58:54.768Z,41.39
2023-03-29T01:01:28.442Z,42.05
2023-03-29T01:04:03.257Z,40.95
2023-03-29T01:06:33.953Z,41.12
2023-03-29T01:09:04.384Z,41.79
2023-03-29T01:11:50.006Z,42.45
2023-03-29T01:14:39.310Z,42.87
2023-03-29T01:17:06.901Z,42.46
2023-03-29T01:19:42.215Z,42.89
2023-03-29T01:22:28.331Z,44.39
2023-03-29T01:25:20.807Z,45.13
2023-03-29T01:28:06.349Z,45.72
2023-03-29T01:30:45.965Z,45.63
2023-03-29T01:33:23.349Z,44.46
2023-03-29T01:36:12.179Z,43.94
2023-03-29T01:38:48.505Z,43.35
2023-03-29T01:41:15.782Z,43.33
2023-03-29T01:43:56.717Z,42.93
2023-03-29T01:46:41.615Z,43.10
2023-03-29T01:49:16.905Z,43.28
2023-03-29T01:51:58.439Z,44.03
2023-03-29T01:54:36.287Z,44.48
2023-03-29T01:57:05.798Z,44.58
2023-03-29T01:59:36.011Z,45.18
2023-03-29T02:02:08.271Z,46.09
2023-03-29T02:04:39.735Z,45.47
2023-03-29T02:07:08.685Z,46.58
2023-03-29T02:09:37.684Z,46.83
2023-03-29T02:12:07.804Z,47.19
2023-03-29T02:14:35.082Z,46.94
2023-03-29T02:17:19.889Z,47.45
2023-03-29T02:19:50.154Z,47.18
2023-03-29T02:22:24.497Z,47.53
2023-03-29T02:24:59.093Z,47.15
2023-03-29T02:27:29.610Z,47.42
2023-03-29T02:29:58.247Z,47.17
2023-03-29T02:32:40.390Z,47.63
2023-03-29T02:35:15.058Z,47.89
2023-03-29T02:37:49.431Z,47.74
2023-03-29T02:40:17.935Z,48.38
2023-03-29T02:42:46.128Z,48.13
2023-03-29T02:45:16.228Z,46.64
2023-03-29T02:47:48.486Z,45.78
2023-03-29T02:50:15.751Z,46.33
2023-03-29T02:52:50.141Z,46.83
2023-03-29T02:55:18.849Z,45.93
2023-03-29T02:57:45.479Z,45.91
2023-03-29T03:00:14.508Z,46.13
2023-03-29T03:02:41.850Z,45.91
2023-03-29T03:05:10.361Z,45.27
2023-03-29T03:07:37.331Z,44.33
2023-03-29T03:10:04.513Z,44.89
2023-03-29T03:12:31.328Z,44.91
2023-03-29T03:14:58.269Z,44.15
2023-03-29T03:17:25.295Z,44.03
2023-03-29T03:19:53.157Z,43.87
2023-03-29T03:22:20.387Z,44.41
2023-03-29T03:24:47.166Z,45.59
2023-03-29T03:27:13.974Z,46.33
2023-03-29T03:29:41.450Z,46.57
2023-03-29T03:32:28.723Z,47.03
2023-03-29T03:35:21.949Z,47.35
2023-03-29T03:37:48.651Z,46.98
2023-03-29T03:40:17.303Z,47.16
2023-03-29T03:42:44.436Z,47.33
2023-03-29T03:45:12.257Z,47.83
2023-03-29T03:47:52.423Z,47.28
2023-03-29T03:50:24.513Z,47.43
2023-03-29T03:52:52.061Z,47.59
2023-03-29T03:55:19.929Z,48.50
2023-03-29T03:58:07.171Z,48.67
2023-03-29T04:00:34.439Z,49.18
2023-03-29T04:03:19.369Z,48.05
2023-03-29T04:05:47.545Z,47.73
2023-03-29T04:08:16.422Z,48.70
2023-03-29T04:11:07.637Z,48.70
2023-03-29T04:13:37.185Z,49.55
2023-03-29T04:16:39.080Z,49.94
2023-03-29T04:19:25.669Z,51.54
2023-03-29T04:21:52.526Z,52.17
2023-03-29T04:24:19.198Z,51.65
2023-03-29T04:27:04.209Z,51.06
2023-03-29T04:29:30.986Z,52.01
2023-03-29T04:32:14.141Z,52.86
2023-03-29T04:34:53.210Z,52.42
2023-03-29T04:37:22.026Z,52.00
2023-03-29T04:39:52.417Z,53.13
2023-03-29T04:42:19.228Z,52.47
2023-03-29T04:44:47.199Z,52.29
2023-03-29T04:47:21.194Z,52.65
2023-03-29T04:49:56.163Z,51.73
2023-03-29T04:52:37.167Z,51.86
2023-03-29T04:55:07.128Z,51.69
2023-03-29T04:57:56.830Z,52.39
2023-03-29T05:00:31.436Z,52.75
2023-03-29T05:03:21.902Z,52.30
2023-03-29T05:05:54.998Z,52.03
2023-03-29T05:08:21.693Z,52.37
2023-03-29T05:11:25.268Z,53.17
2023-03-29T05:13:52.653Z,52.59
2023-03-29T05:16:20.554Z,52.63
2023-03-29T05:18:47.369Z,52.53
2023-03-29T05:21:14.235Z,52.35
2023-03-29T05:23:44.871Z,51.73
2023-03-29T05:26:37.328Z,50.68
2023-03-29T05:29:04.624Z,49.55
2023-03-29T05:31:32.683Z,49.38
2023-03-29T05:33:59.704Z,48.65
2023-03-29T05:36:28.944Z,47.95
2023-03-29T05:38:57.112Z,48.55
2023-03-29T05:41:24.754Z,48.36
2023-03-29T05:44:10.333Z,48.80
2023-03-29T05:46:39.238Z,49.21
2023-03-29T05:49:07.221Z,49.40
2023-03-29T05:51:48.737Z,49.45
2023-03-29T05:54:15.537Z,51.06
2023-03-29T05:56:42.321Z,51.80
2023-03-29T05:59:09.442Z,52.70
2023-03-29T06:01:36.762Z,53.53
2023-03-29T06:04:07.802Z,53.12
2023-03-29T06:06:43.834Z,53.21
2023-03-29T06:09:11.225Z,53.22
2023-03-29T06:11:56.355Z,53.03
2023-03-29T06:14:35.665Z,53.76
2023-03-29T06:17:19.976Z,53.79
2023-03-29T06:19:47.611Z,53.94
2023-03-29T06:22:15.134Z,53.40
2023-03-29T06:24:42.397Z,53.22
2023-03-29T06:27:17.584Z,53.48
2023-03-29T06:29:44.558Z,53.29
2023-03-29T06:32:11.875Z,53.08
2023-03-29T06:34:47.385Z,52.08
2023-03-29T06:37:33.673Z,52.16
2023-03-29T06:40:13.371Z,51.88
2023-03-29T06:42:45.118Z,51.46
2023-03-29T06:45:29.523Z,50.89
2023-03-29T06:47:58.665Z,51.06
2023-03-29T06:50:26.364Z,50.71
2023-03-29T06:53:02.713Z,50.98
2023-03-29T06:55:31.653Z,50.42
2023-03-29T06:58:08.290Z,49.46
2023-03-29T07:00:38.967Z,48.61
2023-03-29T07:03:20.421Z,47.92
2023-03-29T07:05:51.913Z,48.20
2023-03-29T07:08:21.289Z,47.87
2023-03-29T07:10:56.511Z,46.88
2023-03-29T07:13:42.444Z,45.31
2023-03-29T07:16:13.793Z,45.59
2023-03-29T07:19:15.973Z,45.22
2023-03-29T07:21:54.962Z,45.29
2023-03-29T07:24:28.338Z,45.57
2023-03-29T07:27:03.291Z,44.97
2023-03-29T07:29:32.563Z,43.40
2023-03-29T07:32:00.215Z,42.86
2023-03-29T07:34:42.430Z,41.82
2023-03-29T07:37:14.778Z,40.52
2023-03-29T07:39:43.798Z,38.93
2023-03-29T07:42:28.780Z,37.46
2023-03-29T07:44:55.835Z,35.92
2023-03-29T07:47:23.184Z,35.50
2023-03-29T07:49:50.292Z,35.22
2023-03-29T07:52:17.306Z,33.93
2023-03-29T07:54:44.044Z,33.14
2023-03-29T07:57:27.429Z,30.86
2023-03-29T07:59:56.662Z,31.15
2023-03-29T08:02:27.305Z,30.67
2023-03-29T08:04:57.370Z,30.58
2023-03-29T08:07:24.824Z,29.80
2023-03-29T08:10:11.332Z,28.70
2023-03-29T08:12:52.590Z,28.74
2023-03-29T08:15:24.896Z,28.39
2023-03-29T08:17:51.878Z,28.01
2023-03-29T08:20:19.189Z,27.77
2023-03-29T08:22:49.252Z,27.14
2023-03-29T08:25:30.752Z,27.14
2023-03-29T08:27:58.935Z,26.75
2023-03-29T08:30:37.094Z,25.57
2023-03-29T08:33:05.220Z,26.37
2023-03-29T08:35:32.107Z,25.84
2023-03-29T08:38:24.839Z,25.20
2023-03-29T08:40:52.068Z,25.39
2023-03-29T08:43:19.623Z,24.22
2023-03-29T08:46:18.960Z,23.71
2023-03-29T08:48:53.796Z,22.77
2023-03-29T08:51:27.894Z,23.01
2023-03-29T08:54:46.941Z,22.96
2023-03-29T08:57:57.727Z,21.80
2023-03-29T09:00:43.250Z,21.28
2023-03-29T09:03:34.356Z,20.44
2023-03-29T09:06:12.685Z,20.76
2023-03-29T09:08:46.679Z,21.05
2023-03-29T09:11:46.928Z,20.13
2023-03-29T09:14:30.144Z,20.20
2023-03-29T09:17:15.743Z,19.97
2023-03-29T09:20:16.224Z,19.23
2023-03-29T09:23:05.052Z,18.23
2023-03-29T09:25:58.649Z,17.83
2023-03-29T09:28:41.160Z,17.48
2023-03-29T09:31:16.641Z,18.61
2023-03-29T09:33:56.553Z,18.37
2023-03-29T09:36:34.400Z,17.96
2023-03-29T09:39:01.815Z,17.70
2023-03-29T09:41:41.996Z,17.41
2023-03-29T09:44:27.660Z,17.00
2023-03-29T09:47:11.830Z,16.88
2023-03-29T09:49:47.070Z,16.29
2023-03-29T09:52:16.842Z,17.13
2023-03-29T09:54:50.170Z,16.95
2023-03-29T09:57:36.422Z,17.21
2023-03-29T10:00:06.023Z,17.58
2023-03-29T10:02:40.891Z,17.30
2023-03-29T10:05:16.244Z,17.37
2023-03-29T10:07:57.603Z,17.95
2023-03-29T10:10:30.616Z,18.21
2023-03-29T10:13:01.516Z,17.67
2023-03-29T10:15:30.334Z,18.14
2023-03-29T10:18:11.395Z,16.97
2023-03-29T10:20:40.129Z,16.34
2023-03-29T10:23:08.693Z,16.58
2023-03-29T10:25:42.841Z,16.69
2023-03-29T10:28:17.580Z,16.54
2023-03-29T10:30:52.352Z,17.54
2023-03-29T10:33:23.953Z,16.64
2023-03-29T10:35:51.611Z,16.36
2023-03-29T10:38:20.884Z,15.62
2023-03-29T10:40:53.072Z,15.55
2023-03-29T10:43:19.640Z,15.13
2023-03-29T10:45:51.746Z,15.55
2023-03-29T10:48:19.563Z,15.30
2023-03-29T10:50:53.046Z,14.83
2023-03-29T10:53:26.424Z,16.19
2023-03-29T10:56:13.755Z,15.54
2023-03-29T10:59:01.450Z,15.70
2023-03-29T11:01:56.600Z,16.44
2023-03-29T11:04:44.512Z,14.86
2023-03-29T11:07:34.582Z,13.93
2023-03-29T11:10:26.055Z,13.94
2023-03-29T11:13:19.594Z,13.48
2023-03-29T11:16:10.747Z,12.97
2023-03-29T11:18:40.513Z,12.19
2023-03-29T11:21:19.136Z,11.32
2023-03-29T11:24:22.000Z,12.05
2023-03-29T11:26:57.735Z,11.50
2023-03-29T11:29:27.272Z,10.58
2023-03-29T11:32:32.372Z,11.37
2023-03-29T11:35:01.580Z,11.17
2023-03-29T11:37:37.842Z,11.78
2023-03-29T11:40:15.196Z,12.25
2023-03-29T11:42:47.153Z,11.87
2023-03-29T11:45:30.567Z,11.42
2023-03-29T11:48:00.799Z,11.09
2023-03-29T11:50:51.071Z,10.74
2023-03-29T11:53:25.618Z,11.15
2023-03-29T11:55:54.354Z,11.46
2023-03-29T11:58:27.620Z,11.88
2023-03-29T12:00:58.228Z,11.15
2023-03-29T12:03:46.752Z,10.66
2023-03-29T12:06:36.041Z,10.89
2023-03-29T12:09:07.492Z,11.42
2023-03-29T12:11:48.792Z,12.04
2023-03-29T12:14:21.308Z,13.28
2023-03-29T12:17:01.101Z,12.33
2023-03-29T12:19:41.013Z,12.27
2023-03-29T12:22:09.950Z,11.74
2023-03-29T12:24:43.639Z,11.00
2023-03-29T12:27:20.449Z,12.56
2023-03-29T12:30:02.457Z,13.57
2023-03-29T12:32:53.289Z,13.82
2023-03-29T12:36:21.454Z,14.27
2023-03-29T12:39:11.482Z,16.44
2023-03-29T12:42:26.301Z,14.32
2023-03-29T12:45:20.034Z,15.07
2023-03-29T12:47:49.047Z,17.44
2023-03-29T12:50:25.661Z,15.85
2023-03-29T12:52:53.158Z,14.54
2023-03-29T12:55:49.682Z,13.88
2023-03-29T12:58:41.548Z,15.63
2023-03-29T13:01:33.255Z,15.96
2023-03-29T13:04:01.141Z,16.43
2023-03-29T13:06:33.704Z,16.35
2023-03-29T13:09:03.548Z,15.40
2023-03-29T13:11:37.407Z,15.05
2023-03-29T13:14:18.931Z,14.49
2023-03-29T13:16:46.161Z,13.97
2023-03-29T13:19:46.646Z,13.08
2023-03-29T13:22:16.158Z,12.62
2023-03-29T13:25:08.457Z,13.18
2023-03-29T13:27:52.841Z,12.63
2023-03-29T13:30:31.709Z,12.33
2023-03-29T13:33:38.060Z,12.08
2023-03-29T13:36:22.824Z,11.21
2023-03-29T13:38:52.096Z,11.07
2023-03-29T13:41:40.166Z,11.26
2023-03-29T13:44:22.187Z,11.45
2023-03-29T13:47:02.522Z,13.47
2023-03-29T13:49:33.480Z,13.18
2023-03-29T13:52:16.415Z,12.53
2023-03-29T13:55:00.648Z,12.70
2023-03-29T13:57:40.024Z,11.02
2023-03-29T14:00:20.263Z,10.95
2023-03-29T14:02:55.354Z,10.83
2023-03-29T14:05:38.694Z,10.77
2023-03-29T14:08:23.469Z,9.96
2023-03-29T14:10:50.768Z,10.04
2023-03-29T14:13:22.250Z,10.71
2023-03-29T14:16:04.636Z,11.76
2023-03-29T14:18:41.121Z,11.70
2023-03-29T14:21:11.501Z,10.92
2023-03-29T14:23:38.704Z,10.96
2023-03-29T14:26:19.833Z,11.30
2023-03-29T14:28:59.090Z,12.43
2023-03-29T14:31:45.133Z,11.79
2023-03-29T14:34:18.346Z,11.12
2023-03-29T14:36:48.897Z,12.34
2023-03-29T14:39:21.442Z,12.30
2023-03-29T14:41:59.295Z,12.72
2023-03-29T14:44:30.994Z,13.10
2023-03-29T14:46:58.309Z,13.30
2023-03-29T14:49:25.370Z,12.68
2023-03-29T14:51:53.618Z,11.92
2023-03-29T14:54:32.737Z,11.31
2023-03-29T14:57:00.052Z,13.57
2023-03-29T14:59:38.414Z,14.15
2023-03-29T15:02:23.024Z,15.71
2023-03-29T15:05:42.445Z,15.81
2023-03-29T15:08:15.602Z,14.66
2023-03-29T15:10:44.763Z,14.90
2023-03-29T15:13:18.485Z,13.85
2023-03-29T15:15:46.247Z,14.22
2023-03-29T15:18:17.105Z,14.00
2023-03-29T15:20:45.026Z,15.07
2023-03-29T15:23:14.702Z,16.27
2023-03-29T15:26:07.387Z,15.51
2023-03-29T15:28:35.568Z,15.05
2023-03-29T15:31:11.961Z,15.01
2023-03-29T15:33:41.654Z,14.73
2023-03-29T15:36:11.120Z,15.27
2023-03-29T15:38:44.581Z,14.96
2023-03-29T15:41:15.575Z,16.98
2023-03-29T15:43:42.884Z,16.86
2023-03-29T15:46:13.050Z,19.30
2023-03-29T15:48:39.726Z,19.50
2023-03-29T15:51:07.150Z,18.71
2023-03-29T15:53:34.222Z,17.95
2023-03-29T15:56:02.084Z,18.97
2023-03-29T15:58:31.675Z,18.98
2023-03-29T16:01:00.722Z,19.61
2023-03-29T16:03:27.347Z,20.15
2023-03-29T16:05:56.737Z,21.46
2023-03-29T16:08:25.128Z,23.83
2023-03-29T16:10:52.018Z,24.60
2023-03-29T16:13:18.781Z,24.68
2023-03-29T16:15:45.935Z,25.11
2023-03-29T16:18:12.454Z,24.90
2023-03-29T16:20:39.122Z,25.44
2023-03-29T16:23:09.401Z,26.21
2023-03-29T16:25:38.384Z,26.80
2023-03-29T16:28:05.633Z,26.66
2023-03-29T16:30:32.706Z,27.56
2023-03-29T16:32:59.592Z,28.35
2023-03-29T16:35:32.119Z,28.31
2023-03-29T16:37:59.012Z,28.77
2023-03-29T16:40:26.056Z,28.83
2023-03-29T16:42:52.870Z,29.20
2023-03-29T16:45:20.334Z,29.23
2023-03-29T16:47:47.105Z,29.30
2023-03-29T16:50:18.233Z,30.01
2023-03-29T16:52:47.879Z,30.02
2023-03-29T16:55:15.695Z,30.77
2023-03-29T16:57:42.774Z,30.21
2023-03-29T17:00:16.960Z,29.99
2023-03-29T17:02:44.148Z,29.61
2023-03-29T17:05:12.317Z,30.23
2023-03-29T17:07:39.581Z,30.97
2023-03-29T17:10:08.271Z,32.01
2023-03-29T17:12:35.572Z,32.16
2023-03-29T17:15:02.806Z,32.83
2023-03-29T17:17:29.756Z,32.84
2023-03-29T17:19:57.270Z,32.59
2023-03-29T17:22:24.173Z,33.70
2023-03-29T17:24:50.884Z,33.98
2023-03-29T17:27:17.715Z,33.87
2023-03-29T17:29:44.315Z,32.15
2023-03-29T17:32:11.142Z,30.47
2023-03-29T17:34:38.732Z,31.27
2023-03-29T17:37:05.427Z,33.01
2023-03-29T17:39:33.310Z,32.76
2023-03-29T17:41:59.922Z,33.25
2023-03-29T17:44:26.905Z,33.56
2023-03-29T17:46:53.579Z,33.89
2023-03-29T17:49:20.752Z,32.76
2023-03-29T17:51:47.437Z,33.06
2023-03-29T17:54:14.024Z,33.24
2023-03-29T17:56:40.766Z,33.30
2023-03-29T17:59:07.451Z,33.27
2023-03-29T18:01:34.912Z,31.60
2023-03-29T18:04:02.943Z,31.06
2023-03-29T18:06:29.563Z,30.94
2023-03-29T18:08:56.754Z,31.06
2023-03-29T18:11:24.687Z,30.81
2023-03-29T18:13:53.396Z,29.79
2023-03-29T18:16:22.860Z,30.29
2023-03-29T18:18:49.697Z,30.29
2023-03-29T18:21:17.020Z,30.63
2023-03-29T18:23:47.027Z,30.19
2023-03-29T18:26:15.573Z,30.72
2023-03-29T18:28:43.909Z,30.54
2023-03-29T18:31:10.642Z,30.63
2023-03-29T18:33:37.281Z,30.62
2023-03-29T18:36:10.746Z,30.59
2023-03-29T18:38:40.638Z,29.67
2023-03-29T18:41:08.578Z,34.53
2023-03-29T18:43:35.982Z,38.72
2023-03-29T18:46:06.737Z,44.22
2023-03-29T18:48:38.692Z,46.01
2023-03-29T18:51:07.683Z,47.60
2023-03-29T18:53:35.768Z,48.91
2023-03-29T18:56:03.390Z,50.76
2023-03-29T18:58:30.179Z,52.30
2023-03-29T19:01:04.315Z,52.99
2023-03-29T19:03:35.007Z,52.49
2023-03-29T19:06:02.401Z,53.76
2023-03-29T19:08:29.597Z,53.81
2023-03-29T19:11:07.743Z,53.63
2023-03-29T19:13:35.453Z,53.95
2023-03-29T19:16:03.913Z,54.03
2023-03-29T19:18:31.331Z,54.27
2023-03-29T19:20:57.957Z,54.51
2023-03-29T19:23:27.235Z,54.08
2023-03-29T19:26:00.276Z,54.50
2023-03-29T19:28:27.997Z,55.21
2023-03-29T19:30:56.303Z,55.98
2023-03-29T19:33:22.912Z,56.02
2023-03-29T19:35:51.711Z,55.64
2023-03-29T19:38:19.365Z,55.97
2023-03-29T19:40:50.676Z,56.18
2023-03-29T19:43:18.310Z,56.64
2023-03-29T19:45:47.078Z,56.58
2023-03-29T19:48:21.842Z,57.04
2023-03-29T19:50:50.365Z,57.56
2023-03-29T19:53:17.087Z,57.90
2023-03-29T19:55:45.136Z,58.54
2023-03-29T19:58:15.195Z,58.16
2023-03-29T20:00:42.029Z,58.08
2023-03-29T20:03:10.008Z,57.85
2023-03-29T20:05:40.554Z,58.00
2023-03-29T20:08:07.809Z,58.23
2023-03-29T20:10:35.922Z,58.86
2023-03-29T20:13:06.727Z,59.43
2023-03-29T20:15:34.028Z,59.47
2023-03-29T20:18:00.909Z,59.29
2023-03-29T20:20:28.375Z,59.53
2023-03-29T20:22:58.547Z,59.28
2023-03-29T20:25:25.792Z,59.40
2023-03-29T20:27:53.149Z,59.35
2023-03-29T20:30:20.146Z,59.63
2023-03-29T20:32:46.781Z,59.89
2023-03-29T20:35:13.537Z,60.07
2023-03-29T20:37:40.286Z,61.40
2023-03-29T20:40:08.438Z,61.76
2023-03-29T20:42:36.681Z,61.19
2023-03-29T20:45:04.584Z,61.64
2023-03-29T20:47:31.444Z,62.12
2023-03-29T20:49:58.179Z,62.89
2023-03-29T20:52:24.818Z,62.08
2023-03-29T20:54:51.814Z,62.61
2023-03-29T20:57:20.762Z,62.49
2023-03-29T20:59:49.202Z,62.29
2023-03-29T21:02:22.818Z,62.63
2023-03-29T21:04:53.425Z,62.50
2023-03-29T21:07:21.423Z,62.43
2023-03-29T21:09:49.802Z,62.23
2023-03-29T21:12:16.777Z,62.45
2023-03-29T21:14:43.594Z,63.04
2023-03-29T21:17:10.812Z,63.91
2023-03-29T21:19:39.141Z,63.25
2023-03-29T21:22:06.060Z,63.72
2023-03-29T21:24:33.398Z,64.09
2023-03-29T21:27:00.803Z,64.01
2023-03-29T21:29:27.713Z,64.26
2023-03-29T21:31:54.805Z,64.69
2023-03-29T21:34:21.694Z,65.23
2023-03-29T21:36:48.331Z,65.44
2023-03-29T21:39:15.073Z,65.78
2023-03-29T21:41:41.875Z,66.00
2023-03-29T21:44:08.819Z,64.92
2023-03-29T21:46:35.512Z,65.42
2023-03-29T21:49:02.222Z,64.07
2023-03-29T21:51:28.825Z,63.80
2023-03-29T21:53:55.588Z,64.00
2023-03-29T21:56:22.515Z,63.40
2023-03-29T21:58:49.293Z,64.08
2023-03-29T22:01:16.325Z,63.95
2023-03-29T22:03:43.122Z,63.61
2023-03-29T22:06:13.600Z,63.96
2023-03-29T22:08:40.639Z,63.27
2023-03-29T22:11:14.380Z,64.09
2023-03-29T22:13:42.501Z,64.44
2023-03-29T22:16:13.830Z,64.00
2023-03-29T22:18:43.681Z,64.08
2023-03-29T22:21:15.105Z,64.02
2023-03-29T22:23:43.535Z,64.01
2023-03-29T22:26:12.330Z,64.28
2023-03-29T22:28:39.514Z,64.25
2023-03-29T22:31:12.124Z,63.95
2023-03-29T22:33:39.789Z,64.76
2023-03-29T22:36:27.051Z,64.28
2023-03-29T22:38:54.869Z,64.34
2023-03-29T22:41:26.019Z,64.35
2023-03-29T22:43:54.343Z,63.95
2023-03-29T22:46:21.287Z,63.71
2023-03-29T22:48:48.226Z,63.48
2023-03-29T22:51:16.172Z,63.49
2023-03-29T22:53:42.867Z,62.99
2023-03-29T22:56:09.646Z,62.97
2023-03-29T22:58:37.658Z,63.28
2023-03-29T23:01:05.478Z,64.38
2023-03-29T23:03:32.953Z,63.95
2023-03-29T23:06:02.409Z,64.20
2023-03-29T23:08:33.485Z,63.72
2023-03-29T23:11:00.998Z,63.78
2023-03-29T23:13:29.107Z,64.19
2023-03-29T23:15:59.060Z,63.00
2023-03-29T23:18:27.669Z,64.01
2023-03-29T23:20:56.480Z,63.32
2023-03-29T23:23:24.838Z,63.78
2023-03-29T23:25:52.720Z,63.45
2023-03-29T23:28:23.336Z,64.00
2023-03-29T23:31:03.248Z,63.95
2023-03-29T23:33:33.661Z,64.06
2023-03-29T23:36:04.812Z,63.68
2023-03-29T23:38:35.817Z,63.83
2023-03-29T23:41:05.019Z,63.68
2023-03-29T23:43:34.226Z,63.76
2023-03-29T23:46:03.912Z,64.00
2023-03-29T23:48:31.591Z,63.81
2023-03-29T23:50:58.369Z,63.68
2023-03-29T23:53:28.306Z,63.87
2023-03-29T23:56:01.588Z,64.22
2023-03-29T23:58:29.798Z,63.98
